Time;durP1;ratioP1;P1;durP2;ratioP2;P2;SDS_P1;SDS_P2;PMS_P1;PMS_P2;Temp;Humidity;BMP_temperature;BMP_pressure;BME280_temperature;BME280_humidity;BME280_pressure;Samples;Min_cycle;Max_cycle;Signal;HPM_P1;HPM_P2
2021/07/23 00:01:23;;;;;;;8.60;4.15;;;;;;;16.56;91.54;101319.06;5023813;28;20083;-79
2021/07/23 00:03:48;;;;;;;9.85;3.88;;;;;;;16.37;92.20;101316.56;5011065;28;20036;-79
2021/07/23 00:06:14;;;;;;;8.93;3.72;;;;;;;16.42;91.55;101319.72;5019776;28;20034;-77
2021/07/23 00:08:40;;;;;;;7.75;4.00;;;;;;;16.40;91.96;101315.81;5026569;28;20473;-78
2021/07/23 00:11:05;;;;;;;7.65;3.47;;;;;;;16.24;92.89;101319.59;5007986;28;20060;-79
2021/07/23 00:13:31;;;;;;;7.13;3.70;;;;;;;16.28;92.35;101325.03;5009385;28;20081;-79
2021/07/23 00:15:56;;;;;;;6.00;3.58;;;;;;;16.13;92.64;101316.00;4998998;28;20097;-78
2021/07/23 00:18:22;;;;;;;10.90;4.05;;;;;;;16.07;92.88;101314.78;5007333;28;20154;-79
2021/07/23 00:20:47;;;;;;;6.50;3.90;;;;;;;16.12;92.75;101313.66;5025567;28;20454;-79
2021/07/23 00:23:13;;;;;;;8.45;3.58;;;;;;;16.15;92.88;101315.63;5009144;28;20033;-80
2021/07/23 00:25:38;;;;;;;5.72;3.80;;;;;;;16.08;92.40;101315.56;5002934;28;20030;-78
2021/07/23 00:28:04;;;;;;;6.22;4.10;;;;;;;16.12;92.70;101313.66;5021648;28;20037;-79
2021/07/23 00:30:30;;;;;;;9.93;3.72;;;;;;;16.02;92.80;101307.00;5015116;28;20085;-78
2021/07/23 00:32:55;;;;;;;5.43;3.40;;;;;;;16.01;92.82;101313.56;5006241;28;20111;-79
2021/07/23 00:35:21;;;;;;;5.00;3.35;;;;;;;15.97;93.15;101312.75;5006042;28;20077;-78
2021/07/23 00:37:46;;;;;;;6.97;3.42;;;;;;;16.00;92.74;101309.31;5008522;28;20517;-78
2021/07/23 00:40:12;;;;;;;8.00;3.72;;;;;;;15.95;92.55;101306.91;5010066;28;20034;-78
2021/07/23 00:42:40;;;;;;;6.55;3.92;;;;;;;15.98;93.17;101314.31;5017085;28;20491;-78
2021/07/23 00:45:07;;;;;;;6.90;4.10;;;;;;;15.91;93.63;101311.53;5020794;28;20435;-78
2021/07/23 00:47:34;;;;;;;6.60;3.97;;;;;;;15.88;93.32;101300.63;5012922;28;20453;-79
2021/07/23 00:50:00;;;;;;;7.50;3.95;;;;;;;15.86;93.84;101313.81;5028824;28;20505;-78
2021/07/23 00:52:26;;;;;;;7.57;4.20;;;;;;;15.71;94.60;101302.03;5006104;28;20026;-78
2021/07/23 00:54:52;;;;;;;6.80;3.83;;;;;;;15.62;94.73;101298.81;5021763;28;20026;-78
2021/07/23 00:57:18;;;;;;;6.63;4.07;;;;;;;15.62;95.43;101298.81;5014926;28;20045;-78
2021/07/23 00:59:45;;;;;;;7.30;4.30;;;;;;;15.83;95.91;101298.28;5033919;28;20221;-78
2021/07/23 01:02:11;;;;;;;8.30;4.45;;;;;;;15.92;95.44;101296.81;5034084;28;20038;-78
2021/07/23 01:04:38;;;;;;;8.55;4.38;;;;;;;16.04;95.40;101306.59;5021061;28;20088;-78
2021/07/23 01:07:04;;;;;;;6.45;4.32;;;;;;;16.12;96.21;101295.41;5035426;28;20076;-78
2021/07/23 01:09:30;;;;;;;9.57;4.40;;;;;;;16.19;95.76;101298.19;5024109;28;20041;-78
2021/07/23 01:11:56;;;;;;;7.38;4.35;;;;;;;16.12;96.47;101303.56;5037914;28;20059;-78
2021/07/23 01:14:29;;;;;;;8.15;4.70;;;;;;;16.22;96.35;101299.38;5014402;28;20025;-78
2021/07/23 01:16:55;;;;;;;8.88;4.60;;;;;;;16.34;95.88;101301.03;5021684;28;20175;-77
2021/07/23 01:19:25;;;;;;;7.15;4.53;;;;;;;16.42;95.81;101299.91;5032421;28;20410;-78
2021/07/23 01:21:54;;;;;;;11.35;4.45;;;;;;;16.45;96.30;101293.72;5034551;28;20088;-78
2021/07/23 01:24:21;;;;;;;8.45;4.70;;;;;;;16.31;96.68;101297.13;5012360;28;20037;-78
2021/07/23 01:26:51;;;;;;;8.05;4.68;;;;;;;16.22;98.17;101288.50;4991978;28;20034;-78
2021/07/23 01:29:36;;;;;;;6.68;4.32;;;;;;;16.32;97.93;101292.47;5009494;28;20069;-78
2021/07/23 01:32:02;;;;;;;5.90;4.43;;;;;;;16.36;97.81;101290.53;5032111;28;20532;-78
2021/07/23 01:34:28;;;;;;;8.57;4.78;;;;;;;16.36;98.17;101285.09;5032671;28;20033;-78
2021/07/23 01:36:53;;;;;;;8.63;4.07;;;;;;;16.53;96.96;101289.94;5020740;28;20548;-78
2021/07/23 01:39:20;;;;;;;9.00;4.82;;;;;;;16.61;96.80;101284.13;5018085;28;20466;-78
2021/07/23 01:41:47;;;;;;;8.80;4.72;;;;;;;16.57;96.69;101290.72;5015713;28;20121;-78
2021/07/23 01:44:13;;;;;;;9.63;4.70;;;;;;;16.53;97.27;101287.97;5017441;28;20030;-78
2021/07/23 01:46:38;;;;;;;10.75;4.75;;;;;;;16.54;97.63;101286.03;5015897;28;20022;-78
2021/07/23 01:49:09;;;;;;;11.98;5.00;;;;;;;16.57;97.93;101288.00;5000317;28;20168;-78
2021/07/23 01:51:39;;;;;;;8.93;4.88;;;;;;;16.61;97.97;101286.06;5032422;28;20033;-78
2021/07/23 01:54:11;;;;;;;12.55;4.70;;;;;;;16.70;96.99;101279.16;5015665;28;20029;-78
2021/07/23 01:56:41;;;;;;;9.35;4.97;;;;;;;16.69;96.89;101280.31;5031372;28;20084;-78
2021/07/23 01:59:12;;;;;;;7.72;4.93;;;;;;;16.72;97.30;101279.56;5032471;28;20045;-78
2021/07/23 02:01:39;;;;;;;8.13;4.80;;;;;;;16.77;96.66;101289.28;5014559;28;20034;-78
2021/07/23 02:04:25;;;;;;;7.72;4.63;;;;;;;16.81;96.91;101279.97;5017260;28;20522;-78
2021/07/23 02:06:51;;;;;;;10.60;4.80;;;;;;;16.82;96.56;101275.31;5016597;28;20040;-78
2021/07/23 02:09:18;;;;;;;7.72;4.57;;;;;;;16.84;96.44;101281.16;5000275;28;20030;-78
2021/07/23 02:11:52;;;;;;;9.57;5.05;;;;;;;16.84;96.46;101273.75;5032573;28;20394;-78
2021/07/23 02:14:21;;;;;;;9.95;4.80;;;;;;;16.86;96.58;101271.44;5010425;28;20034;-77
2021/07/23 02:16:47;;;;;;;8.60;5.03;;;;;;;16.93;96.69;101274.22;5022244;28;20093;-77
2021/07/23 02:19:13;;;;;;;7.55;4.70;;;;;;;17.02;96.26;101276.56;5008055;28;20065;-77
2021/07/23 02:22:01;;;;;;;9.07;4.70;;;;;;;16.88;96.15;101274.56;5016822;28;20503;-77
2021/07/23 02:24:27;;;;;;;8.27;4.88;;;;;;;16.89;96.76;101261.75;5027929;28;20029;-77
2021/07/23 02:26:54;;;;;;;8.88;5.07;;;;;;;16.90;96.69;101263.28;5017742;28;20394;-77
2021/07/23 02:29:19;;;;;;;8.10;4.80;;;;;;;17.05;96.83;101275.81;5019217;28;20095;-77
2021/07/23 02:31:47;;;;;;;7.10;4.50;;;;;;;17.01;97.00;101267.63;5003795;28;20033;-77
2021/07/23 02:34:20;;;;;;;8.07;4.85;;;;;;;17.02;97.13;101271.13;4976824;28;20659;-77
2021/07/23 02:36:46;;;;;;;8.70;4.95;;;;;;;17.03;96.71;101280.88;5010263;28;20108;-77
2021/07/23 02:39:16;;;;;;;7.50;4.90;;;;;;;17.03;96.27;101276.19;5023922;28;20030;-78
2021/07/23 02:41:49;;;;;;;6.90;4.72;;;;;;;17.04;96.37;101263.34;5009457;28;20490;-78
2021/07/23 02:44:15;;;;;;;8.57;5.07;;;;;;;17.05;97.57;101270.38;5016386;28;20041;-78
2021/07/23 02:46:41;;;;;;;12.02;5.28;;;;;;;17.08;98.03;101264.94;5009600;28;20029;-78
2021/07/23 02:49:08;;;;;;;10.10;4.88;;;;;;;17.11;97.95;101266.88;5027464;28;20029;-77
2021/07/23 02:51:37;;;;;;;11.52;5.78;;;;;;;17.13;98.57;101267.28;5007056;28;20022;-77
2021/07/23 02:54:05;;;;;;;7.50;5.10;;;;;;;17.07;99.64;101262.59;4991524;28;20124;-78
2021/07/23 02:56:31;;;;;;;11.00;5.75;;;;;;;17.08;100.00;101270.38;5005095;28;20030;-77
2021/07/23 02:58:58;;;;;;;13.05;6.85;;;;;;;17.06;100.00;101263.75;5011701;28;20030;-77
2021/07/23 03:01:24;;;;;;;13.25;6.10;;;;;;;17.09;100.00;101265.72;5009184;28;20030;-78
2021/07/23 03:03:52;;;;;;;10.30;6.40;;;;;;;17.06;100.00;101264.53;5009827;28;20028;-79
2021/07/23 03:06:19;;;;;;;10.25;6.18;;;;;;;17.04;100.00;101257.91;5021096;28;20070;-77
2021/07/23 03:08:46;;;;;;;14.05;7.15;;;;;;;17.02;100.00;101268.41;5008658;28;20036;-77
2021/07/23 03:11:15;;;;;;;10.38;6.22;;;;;;;17.00;100.00;101259.84;5025974;28;20032;-79
2021/07/23 03:13:52;;;;;;;11.73;6.95;;;;;;;17.02;100.00;101254.78;5001675;28;20029;-79
2021/07/23 03:16:17;;;;;;;9.85;6.45;;;;;;;17.03;100.00;101262.56;5009631;28;20491;-77
2021/07/23 03:18:44;;;;;;;10.30;6.25;;;;;;;17.00;100.00;101254.41;5017364;28;20041;-77
2021/07/23 03:21:11;;;;;;;10.40;6.72;;;;;;;17.00;100.00;101254.41;4995687;28;20050;-77
2021/07/23 03:23:37;;;;;;;13.60;7.05;;;;;;;17.00;100.00;101249.75;5006976;28;20415;-76
2021/07/23 03:26:07;;;;;;;13.25;6.53;;;;;;;17.05;100.00;101254.03;5001728;28;20045;-78
2021/07/23 03:28:39;;;;;;;9.90;6.47;;;;;;;17.05;100.00;101251.31;5019224;28;20044;-76
2021/07/23 03:31:16;;;;;;;11.88;6.35;;;;;;;17.09;100.00;101252.13;5001304;28;20057;-77
2021/07/23 03:33:46;;;;;;;15.38;6.82;;;;;;;17.13;100.00;101253.66;5005957;28;20025;-76
2021/07/23 03:36:14;;;;;;;13.38;7.70;;;;;;;17.10;100.00;101251.72;5026074;28;20135;-77
2021/07/23 03:38:42;;;;;;;9.98;6.45;;;;;;;17.15;100.00;101242.38;5004060;28;20478;-77
2021/07/23 03:41:08;;;;;;;14.07;7.07;;;;;;;17.15;100.00;101247.84;5017938;28;20068;-78
2021/07/23 03:43:34;;;;;;;17.50;7.15;;;;;;;17.14;100.00;101246.28;4987448;28;20034;-78
2021/07/23 03:46:19;;;;;;;12.40;7.15;;;;;;;17.13;100.00;101248.22;5017555;28;20034;-77
2021/07/23 03:48:46;;;;;;;20.15;6.85;;;;;;;17.15;100.00;101248.63;5014008;28;20030;-77
2021/07/23 03:51:25;;;;;;;13.00;6.10;;;;;;;17.09;100.00;101241.97;5005042;28;20061;-78
2021/07/23 03:53:51;;;;;;;12.70;7.50;;;;;;;17.10;100.00;101249.00;5020705;28;20049;-77
2021/07/23 03:56:22;;;;;;;10.35;6.63;;;;;;;17.13;100.00;101255.59;5019807;28;20030;-76
2021/07/23 03:58:52;;;;;;;14.05;7.40;;;;;;;17.13;100.00;101250.94;5026143;28;20387;-76
2021/07/23 04:01:22;;;;;;;11.63;6.88;;;;;;;17.09;100.00;101250.16;5021717;28;20033;-77
2021/07/23 04:03:51;;;;;;;11.10;6.57;;;;;;;17.11;100.00;101247.81;5025627;28;20422;-77
2021/07/23 04:06:17;;;;;;;13.70;7.10;;;;;;;17.18;100.00;101247.09;5003861;28;20030;-77
2021/07/23 04:08:44;;;;;;;10.70;6.57;;;;;;;17.17;100.00;101250.19;5025611;28;20033;-76
2021/07/23 04:11:16;;;;;;;11.50;6.93;;;;;;;17.17;100.00;101257.19;5018697;28;20065;-77
2021/07/23 04:13:44;;;;;;;12.35;7.03;;;;;;;17.21;100.00;101251.75;5008325;28;20429;-77
2021/07/23 04:16:10;;;;;;;11.43;6.78;;;;;;;17.17;100.00;101253.66;5008005;28;20029;-76
2021/07/23 04:18:39;;;;;;;12.60;6.95;;;;;;;17.20;100.00;101255.66;5022526;28;20088;-77
2021/07/23 04:21:26;;;;;;;13.05;7.32;;;;;;;17.16;100.00;101249.41;5023307;28;20034;-77
2021/07/23 04:23:52;;;;;;;11.85;7.00;;;;;;;17.13;100.00;101261.84;4996954;28;20068;-78
2021/07/23 04:26:17;;;;;;;12.18;7.32;;;;;;;17.16;100.00;101260.28;5000202;28;20070;-77
2021/07/23 04:28:43;;;;;;;14.98;7.88;;;;;;;17.21;100.00;101259.16;5019452;28;20049;-76
2021/07/23 04:31:10;;;;;;;13.38;8.02;;;;;;;17.16;100.00;101257.56;5023403;28;20120;-77
2021/07/23 04:34:01;;;;;;;16.75;7.95;;;;;;;17.17;100.00;101255.63;5009253;28;20243;-77
2021/07/23 04:36:29;;;;;;;13.65;8.13;;;;;;;17.23;100.00;101254.09;5009649;28;20245;-77
2021/07/23 04:39:03;;;;;;;18.10;8.30;;;;;;;17.20;100.00;101255.66;5007901;28;20422;-77
2021/07/23 04:41:29;;;;;;;15.63;7.40;;;;;;;17.23;100.00;101251.38;5001065;28;20034;-78
2021/07/23 04:43:55;;;;;;;15.25;8.35;;;;;;;17.22;100.00;101257.97;4996550;28;20038;-77
2021/07/23 04:46:21;;;;;;;15.02;8.55;;;;;;;17.28;100.00;101259.16;5007812;28;20068;-77
2021/07/23 04:48:47;;;;;;;14.00;8.20;;;;;;;17.26;100.00;101262.28;5005321;28;20030;-76
2021/07/23 04:51:32;;;;;;;13.05;8.20;;;;;;;17.26;100.00;101259.56;5001166;28;20156;-76
2021/07/23 04:54:18;;;;;;;13.93;8.25;;;;;;;17.23;100.00;101254.88;5009282;28;20038;-76
2021/07/23 04:57:04;;;;;;;19.60;9.00;;;;;;;17.15;100.00;101256.78;4991770;28;20481;-76
2021/07/23 04:59:31;;;;;;;16.58;8.98;;;;;;;17.23;100.00;101251.38;5016806;28;20126;-77
2021/07/23 05:01:56;;;;;;;12.48;8.02;;;;;;;17.16;100.00;101254.84;5013345;28;20133;-76
2021/07/23 05:04:22;;;;;;;13.93;8.23;;;;;;;17.16;100.00;101254.84;5004833;28;20034;-76
2021/07/23 05:06:48;;;;;;;16.40;9.05;;;;;;;17.25;100.00;101251.78;5021734;28;20030;-76
2021/07/23 05:09:14;;;;;;;15.27;8.43;;;;;;;17.18;100.00;101263.41;5002425;28;20037;-76
2021/07/23 05:11:43;;;;;;;14.20;8.48;;;;;;;17.20;100.00;101266.53;5014411;28;20512;-77
2021/07/23 05:14:08;;;;;;;12.73;7.70;;;;;;;17.20;100.00;101261.09;5004531;28;20033;-76
2021/07/23 05:16:35;;;;;;;15.25;8.77;;;;;;;17.26;100.00;101266.94;5021982;28;20034;-77
2021/07/23 05:19:01;;;;;;;14.40;8.93;;;;;;;17.21;100.00;101257.19;5024657;28;20034;-76
2021/07/23 05:21:28;;;;;;;15.80;8.35;;;;;;;17.24;100.00;101261.09;4996756;28;20064;-76
2021/07/23 05:23:54;;;;;;;15.35;8.82;;;;;;;17.36;100.00;101266.97;5020388;28;20443;-76
2021/07/23 05:26:19;;;;;;;12.98;8.57;;;;;;;17.32;100.00;101268.91;5002716;28;20116;-77
2021/07/23 05:28:45;;;;;;;14.90;8.30;;;;;;;17.31;100.00;101270.06;5005358;28;20037;-77
2021/07/23 05:31:10;;;;;;;21.88;9.23;;;;;;;17.33;100.00;101265.00;5011283;28;20132;-77
2021/07/23 05:33:36;;;;;;;14.23;8.68;;;;;;;17.36;100.00;101261.53;5011358;28;20521;-76
2021/07/23 05:36:01;;;;;;;13.63;7.28;;;;;;;17.41;100.00;101258.41;5025373;28;20470;-77
2021/07/23 05:38:27;;;;;;;16.17;8.02;;;;;;;17.46;100.00;101260.75;5028442;28;20406;-77
2021/07/23 05:40:52;;;;;;;9.75;5.68;;;;;;;17.44;100.00;101262.31;5007046;28;21125;-76
2021/07/23 05:43:17;;;;;;;11.98;5.38;;;;;;;17.46;100.00;101268.94;5006350;28;20057;-76
2021/07/23 05:45:43;;;;;;;9.40;5.55;;;;;;;17.48;100.00;101263.91;5023969;28;20414;-76
2021/07/23 05:48:09;;;;;;;8.15;5.10;;;;;;;17.47;100.00;101259.59;5018311;28;20430;-77
2021/07/23 05:50:34;;;;;;;12.68;5.25;;;;;;;17.45;100.00;101252.97;5012147;28;20033;-75
2021/07/23 05:53:00;;;;;;;13.50;5.40;;;;;;;17.48;100.00;101257.66;5011608;28;20041;-77
2021/07/23 05:55:25;;;;;;;8.32;4.68;;;;;;;17.42;100.00;101257.25;5007774;28;20029;-76
2021/07/23 05:57:54;;;;;;;9.52;4.95;;;;;;;17.51;100.00;101260.41;5027833;28;20034;-76
2021/07/23 06:00:20;;;;;;;10.98;5.13;;;;;;;17.56;100.00;101262.75;5012701;28;20049;-76
2021/07/23 06:02:45;;;;;;;12.45;4.70;;;;;;;17.64;100.00;101258.09;5009703;28;20573;-77
2021/07/23 06:05:11;;;;;;;11.82;5.60;;;;;;;17.58;100.00;101254.97;5008541;28;20036;-77
2021/07/23 06:07:39;;;;;;;9.98;4.82;;;;;;;17.65;100.00;101254.22;5009349;28;20038;-76
2021/07/23 06:10:05;;;;;;;13.65;5.43;;;;;;;17.76;100.00;101255.78;5032660;28;20037;-76
2021/07/23 06:12:30;;;;;;;8.30;4.80;;;;;;;17.86;100.00;101256.94;5039107;22;20027;-73
2021/07/23 06:14:55;;;;;;;17.00;5.05;;;;;;;17.90;100.00;101261.22;5049739;28;20029;-73
2021/07/23 06:17:21;;;;;;;11.27;4.82;;;;;;;17.84;100.00;101265.53;5048611;28;20078;-73
2021/07/23 06:19:46;;;;;;;10.98;5.00;;;;;;;17.88;100.00;101263.59;5052198;28;20115;-73
2021/07/23 06:22:12;;;;;;;11.80;4.68;;;;;;;17.85;100.00;101261.63;5049607;28;20559;-73
2021/07/23 06:24:40;;;;;;;6.28;4.57;;;;;;;17.89;100.00;101259.69;5035714;28;20037;-74
2021/07/23 06:27:05;;;;;;;12.75;4.88;;;;;;;17.90;100.00;101266.66;5051125;28;20032;-75
2021/07/23 06:29:31;;;;;;;10.85;4.72;;;;;;;17.91;100.00;101270.97;5041159;28;20026;-75
2021/07/23 06:31:58;;;;;;;8.90;4.60;;;;;;;17.93;100.00;101274.09;5046660;28;20062;-73
2021/07/23 06:34:23;;;;;;;9.55;4.68;;;;;;;18.00;100.00;101274.06;5051038;28;20124;-73
2021/07/23 06:36:49;;;;;;;7.88;4.63;;;;;;;18.03;100.00;101270.59;5045680;28;20452;-72
2021/07/23 06:39:14;;;;;;;10.55;4.65;;;;;;;18.08;100.00;101276.81;5033658;28;20060;-72
2021/07/23 06:41:39;;;;;;;10.60;5.07;;;;;;;18.11;100.00;101267.84;5037349;28;20544;-73
2021/07/23 06:44:05;;;;;;;6.60;4.40;;;;;;;18.20;100.00;101268.22;5035844;28;20044;-73
2021/07/23 06:46:30;;;;;;;7.78;4.45;;;;;;;18.26;100.00;101272.91;5032977;28;20101;-73
2021/07/23 06:48:56;;;;;;;7.05;4.45;;;;;;;18.35;100.00;101276.00;5033052;28;20021;-73
2021/07/23 06:51:21;;;;;;;8.88;4.10;;;;;;;18.42;100.00;101267.03;5046138;28;20029;-73
2021/07/23 06:53:47;;;;;;;8.50;4.25;;;;;;;18.45;100.00;101266.28;5033368;28;20035;-73
2021/07/23 06:56:13;;;;;;;6.45;4.20;;;;;;;18.41;100.00;101266.25;5054100;28;20025;-72
2021/07/23 06:58:38;;;;;;;7.63;4.20;;;;;;;18.42;99.76;101269.75;5033200;28;20039;-73
2021/07/23 07:01:06;;;;;;;8.90;4.40;;;;;;;18.42;99.53;101269.75;5050242;28;20703;-73
2021/07/23 07:03:32;;;;;;;8.20;4.32;;;;;;;18.51;99.63;101267.44;5038360;28;20076;-72
2021/07/23 07:05:58;;;;;;;6.72;4.18;;;;;;;18.50;99.46;101268.63;5033084;28;20053;-73
2021/07/23 07:08:24;;;;;;;11.52;3.80;;;;;;;18.49;99.49;101267.84;5035474;28;20062;-73
2021/07/23 07:10:50;;;;;;;8.55;4.40;;;;;;;18.45;98.93;101269.78;5044576;28;20032;-73
2021/07/23 07:13:16;;;;;;;7.50;4.20;;;;;;;18.49;98.98;101267.84;5038945;28;20562;-72
2021/07/23 07:15:41;;;;;;;7.60;3.70;;;;;;;18.56;97.29;101276.00;5029516;28;20032;-72
2021/07/23 07:18:07;;;;;;;6.95;4.07;;;;;;;18.55;97.54;101276.38;5041458;28;20036;-73
2021/07/23 07:20:33;;;;;;;7.40;3.75;;;;;;;18.49;97.26;101277.94;5050619;28;20100;-73
2021/07/23 07:22:59;;;;;;;6.90;3.70;;;;;;;18.52;97.12;101274.47;5050729;28;20048;-72
2021/07/23 07:25:25;;;;;;;6.60;3.95;;;;;;;18.60;96.65;101281.47;5028520;28;20037;-72
2021/07/23 07:27:53;;;;;;;5.88;3.78;;;;;;;18.62;96.47;101279.88;5046541;28;20481;-73
2021/07/23 07:30:18;;;;;;;8.30;3.95;;;;;;;18.63;96.09;101280.66;5050240;28;20036;-72
2021/07/23 07:32:44;;;;;;;7.88;4.28;;;;;;;18.58;96.75;101281.06;5036988;28;20114;-73
2021/07/23 07:35:10;;;;;;;8.52;4.60;;;;;;;18.73;95.13;101293.50;5048883;28;20083;-72
2021/07/23 07:37:37;;;;;;;7.95;4.07;;;;;;;18.66;95.52;101285.34;5049462;28;20057;-74
2021/07/23 07:40:03;;;;;;;7.85;4.63;;;;;;;18.75;94.70;101282.97;5043528;28;20547;-74
2021/07/23 07:42:30;;;;;;;9.32;3.80;;;;;;;18.73;94.53;101285.31;5028814;28;20029;-74
2021/07/23 07:44:58;;;;;;;5.93;3.45;;;;;;;18.87;92.42;101285.28;5044382;28;20032;-74
2021/07/23 07:47:23;;;;;;;7.30;3.72;;;;;;;18.91;91.92;101286.06;5060127;28;20029;-73
2021/07/23 07:49:49;;;;;;;8.40;4.40;;;;;;;19.02;91.35;101289.50;5043288;28;20095;-74
2021/07/23 07:52:15;;;;;;;7.68;3.88;;;;;;;19.12;92.05;101283.22;5052141;28;20099;-74
2021/07/23 07:54:41;;;;;;;8.05;4.10;;;;;;;19.27;91.53;101284.72;5043211;28;20432;-73
2021/07/23 07:57:07;;;;;;;6.47;3.78;;;;;;;19.32;92.16;101284.31;5040104;28;20051;-74
2021/07/23 07:59:33;;;;;;;15.55;4.28;;;;;;;19.35;91.49;101283.53;5050337;28;20481;-74
2021/07/23 08:01:58;;;;;;;7.80;4.47;;;;;;;19.54;90.22;101283.03;5039314;28;20043;-74
2021/07/23 08:04:24;;;;;;;7.00;3.65;;;;;;;19.76;90.06;101278.22;5040653;28;20095;-74
2021/07/23 08:06:49;;;;;;;5.93;3.67;;;;;;;19.90;88.89;101282.78;5044967;28;20033;-74
2021/07/23 08:09:15;;;;;;;5.97;3.63;;;;;;;20.14;87.91;101279.06;5018458;28;20037;-74
2021/07/23 08:11:41;;;;;;;7.93;3.75;;;;;;;20.36;85.35;101281.22;5041408;28;20133;-74
2021/07/23 08:14:07;;;;;;;5.55;3.53;;;;;;;20.47;84.97;101281.13;5038761;28;20124;-74
2021/07/23 08:16:33;;;;;;;6.68;3.35;;;;;;;20.68;83.49;101281.69;5044906;28;20061;-74
2021/07/23 08:19:03;;;;;;;6.15;3.72;;;;;;;20.94;82.54;101271.22;5043520;28;20579;-74
2021/07/23 08:21:30;;;;;;;10.25;4.18;;;;;;;21.13;82.70;101276.09;5046901;28;20817;-74
2021/07/23 08:24:02;;;;;;;6.85;2.90;;;;;;;21.28;81.05;101278.25;5055756;28;20032;-74
2021/07/23 08:26:28;;;;;;;5.07;3.00;;;;;;;21.41;78.62;101276.50;5039748;28;20025;-74
2021/07/23 08:28:54;;;;;;;4.53;3.05;;;;;;;21.45;79.69;101273.69;5049981;28;20029;-74
2021/07/23 08:31:20;;;;;;;5.63;3.08;;;;;;;21.49;79.39;101269.72;5038021;28;20036;-74
2021/07/23 08:33:45;;;;;;;5.93;2.90;;;;;;;21.57;79.58;101267.66;5037042;28;20104;-74
2021/07/23 08:36:11;;;;;;;4.30;2.58;;;;;;;21.70;78.17;101263.13;5034740;28;20033;-74
2021/07/23 08:38:36;;;;;;;5.72;2.92;;;;;;;21.76;77.44;101268.91;5038568;28;20041;-74
2021/07/23 08:41:03;;;;;;;4.05;2.50;;;;;;;21.86;76.06;101270.75;5037935;28;20039;-74
2021/07/23 08:43:30;;;;;;;5.13;2.90;;;;;;;21.86;77.61;101263.31;5042236;28;20029;-74
2021/07/23 08:45:55;;;;;;;3.88;2.50;;;;;;;21.96;76.41;101267.84;5044070;28;20021;-74
2021/07/23 08:48:21;;;;;;;4.22;2.25;;;;;;;22.30;75.96;101273.13;5042168;28;20085;-74
2021/07/23 08:50:46;;;;;;;3.70;2.47;;;;;;;22.62;74.93;101276.13;5049004;28;20068;-74
2021/07/23 08:53:12;;;;;;;4.47;2.25;;;;;;;22.78;69.92;101270.72;5048609;28;20044;-74
2021/07/23 08:55:39;;;;;;;4.35;2.25;;;;;;;22.61;69.99;101260.81;5049687;28;20033;-75
2021/07/23 08:58:09;;;;;;;3.83;2.20;;;;;;;22.60;69.89;101258.50;5046840;28;20040;-75
2021/07/23 09:00:35;;;;;;;2.78;2.05;;;;;;;22.71;69.91;101268.09;5045577;28;20056;-74
2021/07/23 09:03:08;;;;;;;4.13;2.05;;;;;;;22.79;71.32;101274.22;5048005;28;20520;-74
2021/07/23 09:05:41;;;;;;;2.53;1.95;;;;;;;22.93;71.24;101255.47;5044420;28;20025;-74
2021/07/23 09:08:07;;;;;;;3.10;2.00;;;;;;;22.91;70.86;101262.59;5049006;28;20405;-74
2021/07/23 09:10:33;;;;;;;2.13;1.70;;;;;;;22.94;70.00;101265.25;5045016;28;20028;-75
2021/07/23 09:13:03;;;;;;;3.35;2.08;;;;;;;23.02;69.85;101272.16;5048517;28;20083;-74
2021/07/23 09:15:40;;;;;;;2.17;1.77;;;;;;;23.01;67.59;101273.38;5046606;28;20036;-74
2021/07/23 09:18:18;;;;;;;3.45;2.20;;;;;;;22.90;67.42;101266.56;5042669;28;20478;-74
2021/07/23 09:20:53;;;;;;;2.35;1.92;;;;;;;22.73;67.76;101273.94;5032860;28;20718;-74
2021/07/23 09:23:29;;;;;;;2.13;1.92;;;;;;;22.62;70.03;101269.84;5047747;28;20073;-74
2021/07/23 09:25:56;;;;;;;5.95;1.90;;;;;;;22.67;69.51;101258.34;5034528;28;20025;-74
2021/07/23 09:28:24;;;;;;;2.45;1.75;;;;;;;22.77;69.05;101263.66;5050833;28;20037;-74
2021/07/23 09:30:50;;;;;;;3.60;2.00;;;;;;;22.86;69.67;101261.09;5053537;28;20060;-74
2021/07/23 09:33:33;;;;;;;3.58;2.20;;;;;;;22.71;69.05;101257.09;5038765;28;20034;-74
2021/07/23 09:36:04;;;;;;;4.10;2.25;;;;;;;22.72;68.84;101260.63;5041325;28;20040;-74
2021/07/23 09:38:34;;;;;;;4.13;2.38;;;;;;;22.64;70.56;101253.72;5034113;28;20124;-74
2021/07/23 09:41:00;;;;;;;5.53;2.10;;;;;;;22.72;69.64;101253.16;5035756;28;20075;-74
2021/07/23 09:43:33;;;;;;;3.70;1.90;;;;;;;22.74;70.41;101248.03;5039058;28;20772;-74
2021/07/23 09:46:21;;;;;;;5.70;2.97;;;;;;;22.53;70.58;101255.88;5045445;28;20025;-74
2021/07/23 09:48:48;;;;;;;3.72;2.40;;;;;;;22.61;70.93;101255.31;5036880;28;20040;-74
2021/07/23 09:51:14;;;;;;;3.42;2.20;;;;;;;22.62;70.57;101256.91;5044061;28;20090;-74
2021/07/23 09:53:40;;;;;;;4.07;2.40;;;;;;;22.59;72.67;101252.22;5040611;28;20032;-73
2021/07/23 09:56:07;;;;;;;6.13;2.38;;;;;;;22.42;71.76;101250.56;5044615;28;20044;-73
2021/07/23 09:58:39;;;;;;;3.67;2.35;;;;;;;22.42;69.76;101242.31;5050381;28;20040;-73
2021/07/23 10:01:08;;;;;;;4.20;2.30;;;;;;;22.47;70.82;101250.09;5056741;28;20032;-73
2021/07/23 10:03:36;;;;;;;4.03;2.60;;;;;;;22.30;71.03;101240.19;5056821;28;20440;-73
2021/07/23 10:06:13;;;;;;;3.28;2.03;;;;;;;22.41;70.71;101249.78;5051913;28;20067;-73
2021/07/23 10:08:49;;;;;;;4.45;2.80;;;;;;;22.48;70.06;101240.66;5064959;28;20047;-76
2021/07/23 10:11:20;;;;;;;6.65;2.53;;;;;;;22.25;70.66;101235.19;5045579;28;20125;-75
2021/07/23 10:14:04;;;;;;;;;;;;;;;22.04;70.46;101232.84;5035220;28;20436;-75
2021/07/23 10:16:43;;;;;;;3.83;2.65;;;;;;;22.18;69.67;101232.59;5042113;28;19921;-75
2021/07/23 10:19:15;;;;;;;5.72;2.92;;;;;;;22.54;70.52;101238.19;5042013;28;20040;-74
2021/07/23 10:22:09;;;;;;;4.60;2.75;;;;;;;22.67;70.26;101247.38;5049789;28;20033;-74
2021/07/23 10:24:42;;;;;;;3.65;2.72;;;;;;;22.70;69.92;101235.56;5031833;28;20049;-74
2021/07/23 10:27:09;;;;;;;3.28;2.80;;;;;;;22.82;69.08;101235.66;5031713;28;20033;-74
2021/07/23 10:29:46;;;;;;;5.78;3.38;;;;;;;22.82;69.99;101243.91;5043433;28;20064;-74
2021/07/23 10:32:24;;;;;;;5.00;3.40;;;;;;;22.79;68.35;101239.28;5048717;28;20039;-74
2021/07/23 10:35:15;;;;;;;5.05;3.40;;;;;;;22.79;69.57;101227.50;5044520;28;20125;-74
2021/07/23 10:37:49;;;;;;;5.20;3.13;;;;;;;22.91;69.63;101235.13;4999415;28;20051;-74
2021/07/23 10:40:16;;;;;;;4.00;2.95;;;;;;;22.86;69.55;101232.88;5038098;28;20045;-74
2021/07/23 10:42:43;;;;;;;4.65;3.30;;;;;;;22.94;69.41;101231.50;5056635;28;20485;-74
2021/07/23 10:45:12;;;;;;;4.93;3.55;;;;;;;22.97;70.53;101225.97;5045271;28;20128;-75
2021/07/23 10:47:48;;;;;;;7.95;3.67;;;;;;;22.94;69.76;101223.25;5044634;28;20139;-74
2021/07/23 10:50:25;;;;;;;5.50;3.92;;;;;;;22.93;68.64;101221.72;5036100;28;20448;-74
2021/07/23 10:52:52;;;;;;;4.80;3.70;;;;;;;23.02;69.64;101225.44;5048908;28;20405;-74
2021/07/23 10:55:22;;;;;;;9.55;3.92;;;;;;;22.99;68.69;101231.81;5035140;28;20033;-74
2021/07/23 10:58:08;;;;;;;8.23;4.47;;;;;;;22.91;69.62;101226.88;5040394;28;20037;-74
2021/07/23 11:00:47;;;;;;;6.38;3.97;;;;;;;22.80;68.39;101223.56;5035862;28;20036;-74
2021/07/23 11:03:37;;;;;;;7.35;3.95;;;;;;;22.75;68.30;101224.06;5053230;28;20098;-74
2021/07/23 11:06:35;;;;;;;6.40;3.35;;;;;;;22.58;68.82;101231.47;5037996;28;20078;-74
2021/07/23 11:09:04;;;;;;;4.38;2.95;;;;;;;22.48;69.24;101231.63;5026366;28;20032;-74
2021/07/23 11:11:31;;;;;;;4.25;3.20;;;;;;;22.52;70.17;101230.38;5036598;28;20402;-76
2021/07/23 11:14:13;;;;;;;4.70;2.78;;;;;;;22.61;67.84;101218.88;5055540;28;20032;-77
2021/07/23 11:16:38;;;;;;;3.83;2.70;;;;;;;22.81;67.78;101223.16;5043122;28;20088;-76
2021/07/23 11:19:04;;;;;;;6.05;2.72;;;;;;;22.90;68.76;101228.09;5043607;28;20120;-76
2021/07/23 11:21:35;;;;;;;4.53;2.55;;;;;;;22.92;68.37;101220.16;5031939;28;20082;-76
2021/07/23 11:24:11;;;;;;;3.20;2.53;;;;;;;22.71;68.51;101218.63;5045116;28;20032;-76
2021/07/23 11:26:38;;;;;;;7.10;2.40;;;;;;;22.70;67.80;101213.56;5034709;28;20605;-76